createdAt,value
2022-08-27T00:01:46.835Z,8.90
2022-08-27T00:04:13.972Z,9.10
2022-08-27T00:06:41.152Z,9.45
2022-08-27T00:09:08.346Z,9.02
2022-08-27T00:11:37.334Z,8.80
2022-08-27T00:14:05.299Z,8.88
2022-08-27T00:16:32.863Z,9.50
2022-08-27T00:19:00.063Z,9.05
2022-08-27T00:21:27.208Z,9.10
2022-08-27T00:23:54.225Z,9.57
2022-08-27T00:26:21.425Z,9.07
2022-08-27T00:28:48.826Z,10.55
2022-08-27T00:31:16.057Z,9.40
2022-08-27T00:33:43.695Z,9.32
2022-08-27T00:36:12.721Z,10.18
2022-08-27T00:38:41.453Z,10.20
2022-08-27T00:41:12.014Z,9.32
2022-08-27T00:44:00.335Z,8.70
2022-08-27T00:46:47.019Z,10.73
2022-08-27T00:49:32.657Z,10.48
2022-08-27T00:52:27.328Z,9.88
2022-08-27T00:55:08.944Z,10.15
2022-08-27T00:57:39.164Z,9.77
2022-08-27T01:00:12.237Z,9.52
2022-08-27T01:02:39.393Z,9.75
2022-08-27T01:05:12.121Z,10.65
2022-08-27T01:07:45.613Z,10.27
2022-08-27T01:10:18.555Z,9.82
2022-08-27T01:12:53.517Z,9.55
2022-08-27T01:15:23.897Z,9.27
2022-08-27T01:17:51.945Z,10.38
2022-08-27T01:20:30.181Z,10.25
2022-08-27T01:23:41.800Z,11.20
2022-08-27T01:26:13.271Z,10.48
2022-08-27T01:28:41.215Z,10.98
2022-08-27T01:31:10.786Z,10.43
2022-08-27T01:33:39.214Z,10.32
2022-08-27T01:36:08.289Z,10.20
2022-08-27T01:38:35.583Z,10.20
2022-08-27T01:41:03.887Z,9.65
2022-08-27T01:43:31.883Z,9.90
2022-08-27T01:46:00.472Z,10.05
2022-08-27T01:48:27.512Z,12.00
2022-08-27T01:50:54.620Z,11.50
2022-08-27T01:53:26.137Z,11.38
2022-08-27T01:55:54.717Z,10.40
2022-08-27T01:58:27.390Z,11.25
2022-08-27T02:01:02.938Z,11.45
2022-08-27T02:03:30.116Z,10.70
2022-08-27T02:05:57.886Z,10.57
2022-08-27T02:08:24.985Z,10.95
2022-08-27T02:10:52.332Z,10.30
2022-08-27T02:13:19.414Z,11.00
2022-08-27T02:15:46.747Z,11.00
2022-08-27T02:18:15.093Z,10.02
2022-08-27T02:20:45.480Z,10.85
2022-08-27T02:23:13.627Z,10.13
2022-08-27T02:25:41.657Z,10.88
2022-08-27T02:28:09.645Z,10.10
2022-08-27T02:30:37.721Z,10.57
2022-08-27T02:33:06.048Z,11.52
2022-08-27T02:35:39.015Z,12.02
2022-08-27T02:38:08.164Z,10.80
2022-08-27T02:40:36.249Z,11.82
2022-08-27T02:43:04.599Z,10.75
2022-08-27T02:45:31.699Z,12.23
2022-08-27T02:47:58.799Z,10.98
2022-08-27T02:50:27.482Z,11.05
2022-08-27T02:52:54.949Z,11.10
2022-08-27T02:55:22.793Z,11.43
2022-08-27T02:57:49.872Z,11.07
2022-08-27T03:00:21.157Z,11.07
2022-08-27T03:02:49.202Z,12.48
2022-08-27T03:05:17.944Z,11.23
2022-08-27T03:07:45.567Z,10.63
2022-08-27T03:10:17.029Z,11.30
2022-08-27T03:12:45.298Z,10.70
2022-08-27T03:15:18.744Z,12.23
2022-08-27T03:18:04.580Z,11.60
2022-08-27T03:20:32.032Z,12.07
2022-08-27T03:23:00.391Z,12.23
2022-08-27T03:25:27.958Z,11.10
2022-08-27T03:27:55.105Z,11.32
2022-08-27T03:30:24.093Z,11.18
2022-08-27T03:32:51.886Z,11.23
2022-08-27T03:35:20.783Z,11.05
2022-08-27T03:37:48.219Z,11.68
2022-08-27T03:40:17.032Z,12.25
2022-08-27T03:42:44.316Z,11.02
2022-08-27T03:45:12.096Z,11.45
2022-08-27T03:47:39.423Z,11.98
2022-08-27T03:50:08.107Z,12.23
2022-08-27T03:52:37.183Z,11.68
2022-08-27T03:55:07.713Z,11.25
2022-08-27T03:57:34.830Z,10.65
2022-08-27T04:00:02.028Z,11.88
2022-08-27T04:02:29.749Z,12.43
2022-08-27T04:04:57.888Z,11.38
2022-08-27T04:07:25.279Z,11.30
2022-08-27T04:09:52.349Z,11.40
2022-08-27T04:12:19.615Z,12.70
2022-08-27T04:14:46.776Z,11.50
2022-08-27T04:17:14.123Z,11.63
2022-08-27T04:19:41.174Z,11.15
2022-08-27T04:22:08.844Z,12.48
2022-08-27T04:24:37.872Z,11.20
2022-08-27T04:27:06.457Z,11.05
2022-08-27T04:29:34.328Z,11.55
2022-08-27T04:32:02.098Z,11.57
2022-08-27T04:34:29.369Z,11.25
2022-08-27T04:36:57.420Z,10.65
2022-08-27T04:39:26.514Z,11.40
2022-08-27T04:41:56.902Z,10.75
2022-08-27T04:44:30.807Z,12.02
2022-08-27T04:47:01.655Z,11.48
2022-08-27T04:49:29.986Z,10.60
2022-08-27T04:51:59.057Z,10.63
2022-08-27T04:54:32.907Z,12.05
2022-08-27T04:57:04.890Z,10.00
2022-08-27T04:59:33.271Z,11.65
2022-08-27T05:02:04.593Z,11.85
2022-08-27T05:04:34.582Z,11.27
2022-08-27T05:07:02.339Z,10.52
2022-08-27T05:09:29.555Z,10.35
2022-08-27T05:11:56.827Z,11.10
2022-08-27T05:14:25.483Z,10.65
2022-08-27T05:16:52.558Z,10.00
2022-08-27T05:19:19.724Z,10.48
2022-08-27T05:21:50.988Z,10.40
2022-08-27T05:24:18.507Z,10.10
2022-08-27T05:26:46.252Z,9.82
2022-08-27T05:29:14.299Z,10.15
2022-08-27T05:31:41.805Z,9.88
2022-08-27T05:34:10.665Z,9.55
2022-08-27T05:36:47.834Z,10.73
2022-08-27T05:39:17.287Z,10.82
2022-08-27T05:41:44.294Z,10.20
2022-08-27T05:44:39.504Z,10.90
2022-08-27T05:46:58.752Z,10.13
2022-08-27T05:49:26.105Z,9.88
2022-08-27T05:51:53.225Z,10.23
2022-08-27T05:54:20.416Z,9.82
2022-08-27T05:56:50.121Z,8.88
2022-08-27T05:59:37.209Z,9.95
2022-08-27T06:02:06.311Z,10.02
2022-08-27T06:04:33.810Z,9.00
2022-08-27T06:07:00.980Z,9.32
2022-08-27T06:09:29.750Z,8.75
2022-08-27T06:12:01.622Z,9.85
2022-08-27T06:14:29.254Z,10.30
2022-08-27T06:16:57.088Z,10.00
2022-08-27T06:19:24.521Z,10.20
2022-08-27T06:22:00.656Z,9.85
2022-08-27T06:24:39.098Z,8.60
2022-08-27T06:27:06.500Z,9.80
2022-08-27T06:29:35.246Z,9.13
2022-08-27T06:32:02.656Z,9.50
2022-08-27T06:34:29.821Z,9.50
2022-08-27T06:36:57.028Z,9.60
2022-08-27T06:39:24.126Z,9.55
2022-08-27T06:41:51.300Z,9.18
2022-08-27T06:44:18.552Z,10.20
2022-08-27T06:46:45.896Z,10.00
2022-08-27T06:49:13.711Z,9.63
2022-08-27T06:51:47.244Z,9.45
2022-08-27T06:54:16.829Z,9.77
2022-08-27T06:56:45.686Z,9.10
2022-08-27T06:59:17.531Z,9.35
2022-08-27T07:01:49.561Z,9.23
2022-08-27T07:04:32.605Z,8.93
2022-08-27T07:07:02.319Z,9.02
2022-08-27T07:09:32.158Z,9.43
2022-08-27T07:12:00.240Z,9.32
2022-08-27T07:14:27.509Z,9.13
2022-08-27T07:16:55.494Z,9.23
2022-08-27T07:19:22.695Z,8.85
2022-08-27T07:21:50.755Z,9.27
2022-08-27T07:24:19.146Z,8.85
2022-08-27T07:26:46.960Z,8.60
2022-08-27T07:29:15.266Z,9.07
2022-08-27T07:31:43.851Z,8.10
2022-08-27T07:34:12.121Z,8.93
2022-08-27T07:36:41.142Z,9.32
2022-08-27T07:39:09.312Z,8.15
2022-08-27T07:41:56.854Z,8.80
2022-08-27T07:44:30.973Z,8.55
2022-08-27T07:47:00.733Z,8.93
2022-08-27T07:49:29.528Z,10.02
2022-08-27T07:51:56.705Z,8.70
2022-08-27T07:54:25.344Z,7.72
2022-08-27T07:56:55.124Z,7.97
2022-08-27T07:59:27.465Z,8.10
2022-08-27T08:01:56.464Z,8.50
2022-08-27T08:04:25.159Z,8.52
2022-08-27T08:06:53.030Z,9.15
2022-08-27T08:09:22.445Z,8.32
2022-08-27T08:11:50.669Z,7.97
2022-08-27T08:14:19.811Z,8.07
2022-08-27T08:16:46.942Z,8.25
2022-08-27T08:19:14.250Z,8.10
2022-08-27T08:21:42.810Z,7.90
2022-08-27T08:24:10.269Z,8.75
2022-08-27T08:26:37.333Z,7.68
2022-08-27T08:29:05.305Z,7.75
2022-08-27T08:31:32.924Z,8.80
2022-08-27T08:34:00.974Z,8.63
2022-08-27T08:36:28.054Z,8.25
2022-08-27T08:38:55.477Z,8.73
2022-08-27T08:41:31.017Z,8.10
2022-08-27T08:44:04.804Z,8.75
2022-08-27T08:47:12.233Z,8.85
2022-08-27T08:49:51.790Z,7.88
2022-08-27T08:52:52.075Z,7.38
2022-08-27T08:55:48.646Z,8.50
2022-08-27T08:58:31.031Z,7.70
2022-08-27T09:01:01.292Z,7.75
2022-08-27T09:03:30.081Z,8.13
2022-08-27T09:06:10.435Z,7.78
2022-08-27T09:08:42.424Z,8.07
2022-08-27T09:11:21.857Z,7.82
2022-08-27T09:13:57.299Z,8.10
2022-08-27T09:16:24.470Z,7.80
2022-08-27T09:18:54.607Z,8.20
2022-08-27T09:21:44.299Z,7.43
2022-08-27T09:24:37.180Z,7.55
2022-08-27T09:27:05.029Z,8.02
2022-08-27T09:29:32.429Z,8.85
2022-08-27T09:32:09.139Z,8.18
2022-08-27T09:34:42.600Z,8.63
2022-08-27T09:37:22.395Z,8.18
2022-08-27T09:40:13.298Z,8.48
2022-08-27T09:42:53.491Z,8.38
2022-08-27T09:45:25.252Z,8.38
2022-08-27T09:48:02.754Z,8.45
2022-08-27T09:50:43.919Z,8.45
2022-08-27T09:53:46.199Z,8.82
2022-08-27T09:56:39.390Z,8.68
2022-08-27T09:59:22.806Z,8.50
2022-08-27T10:02:16.927Z,8.57
2022-08-27T10:04:58.783Z,10.07
2022-08-27T10:07:38.092Z,9.43
2022-08-27T10:10:11.179Z,9.82
2022-08-27T10:13:22.128Z,8.63
2022-08-27T10:16:47.391Z,9.13
2022-08-27T10:19:44.225Z,9.27
2022-08-27T10:22:41.442Z,8.30
2022-08-27T10:25:41.350Z,9.35
2022-08-27T10:28:29.092Z,9.13
2022-08-27T10:31:21.364Z,9.20
2022-08-27T10:34:12.296Z,8.57
2022-08-27T10:37:07.922Z,8.73
2022-08-27T10:40:06.047Z,8.70
2022-08-27T10:43:02.470Z,8.23
2022-08-27T10:46:16.526Z,8.70
2022-08-27T10:48:57.938Z,8.93
2022-08-27T10:51:35.837Z,8.65
2022-08-27T10:54:26.653Z,8.90
2022-08-27T10:57:39.919Z,9.20
2022-08-27T11:00:23.426Z,9.55
2022-08-27T11:03:15.149Z,9.40
2022-08-27T11:05:50.578Z,8.82
2022-08-27T11:08:44.945Z,8.55
2022-08-27T11:12:10.445Z,8.80
2022-08-27T11:14:32.662Z,8.30
2022-08-27T11:17:34.851Z,9.13
2022-08-27T11:20:15.926Z,9.30
2022-08-27T11:22:56.645Z,9.00
2022-08-27T11:25:59.609Z,8.70
2022-08-27T11:28:52.799Z,8.07
2022-08-27T11:31:38.424Z,8.40
2022-08-27T11:34:40.162Z,9.90
2022-08-27T11:37:12.530Z,7.63
2022-08-27T11:39:51.740Z,7.72
2022-08-27T11:42:44.510Z,8.57
2022-08-27T11:45:29.871Z,8.38
2022-08-27T11:48:14.891Z,7.28
2022-08-27T11:50:52.788Z,7.47
2022-08-27T11:53:29.173Z,8.13
2022-08-27T11:55:56.784Z,8.50
2022-08-27T11:58:30.629Z,7.70
2022-08-27T12:01:04.504Z,7.53
2022-08-27T12:03:35.401Z,8.27
2022-08-27T12:06:09.484Z,8.65
2022-08-27T12:08:37.409Z,7.88
2022-08-27T12:11:41.819Z,7.35
2022-08-27T12:14:34.887Z,8.43
2022-08-27T12:17:32.555Z,7.80
2022-08-27T12:20:51.887Z,8.15
2022-08-27T12:23:42.825Z,8.55
2022-08-27T12:26:34.796Z,8.05
2022-08-27T12:29:31.385Z,8.15
2022-08-27T12:32:29.025Z,8.10
2022-08-27T12:35:16.822Z,7.97
2022-08-27T12:37:57.761Z,8.68
2022-08-27T12:40:38.385Z,7.82
2022-08-27T12:43:24.809Z,7.97
2022-08-27T12:46:02.280Z,8.18
2022-08-27T12:48:55.435Z,8.13
2022-08-27T12:51:33.786Z,8.85
2022-08-27T12:54:39.348Z,8.77
2022-08-27T12:57:37.555Z,8.65
2022-08-27T13:00:22.125Z,8.85
2022-08-27T13:03:31.283Z,9.68
2022-08-27T13:06:00.951Z,8.30
2022-08-27T13:08:35.150Z,8.48
2022-08-27T13:11:28.558Z,8.63
2022-08-27T13:14:16.634Z,8.45
2022-08-27T13:16:55.644Z,7.78
2022-08-27T13:19:29.969Z,8.13
2022-08-27T13:21:57.973Z,9.90
2022-08-27T13:24:44.990Z,9.32
2022-08-27T13:27:12.117Z,9.30
2022-08-27T13:29:40.942Z,8.50
2022-08-27T13:32:08.847Z,9.55
2022-08-27T13:34:41.074Z,9.18
2022-08-27T13:37:36.840Z,8.93
2022-08-27T13:40:04.980Z,9.00
2022-08-27T13:42:32.183Z,9.20
2022-08-27T13:45:05.895Z,9.30
2022-08-27T13:47:46.519Z,9.63
2022-08-27T13:50:30.230Z,8.95
2022-08-27T13:53:29.395Z,9.23
2022-08-27T13:55:58.834Z,8.38
2022-08-27T13:58:31.048Z,8.85
2022-08-27T14:01:31.393Z,8.70
2022-08-27T14:04:09.968Z,9.05
2022-08-27T14:06:45.304Z,9.05
2022-08-27T14:09:25.364Z,8.63
2022-08-27T14:12:06.545Z,8.77
2022-08-27T14:14:41.900Z,8.48
2022-08-27T14:17:29.709Z,8.60
2022-08-27T14:20:05.089Z,9.18
2022-08-27T14:22:36.483Z,9.38
2022-08-27T14:25:04.463Z,8.88
2022-08-27T14:27:32.073Z,10.00
2022-08-27T14:29:59.282Z,9.15
2022-08-27T14:32:26.405Z,8.82
2022-08-27T14:34:53.581Z,9.98
2022-08-27T14:37:20.720Z,10.25
2022-08-27T14:39:47.799Z,9.15
2022-08-27T14:42:15.188Z,8.80
2022-08-27T14:44:42.294Z,9.18
2022-08-27T14:47:11.383Z,8.90
2022-08-27T14:49:44.009Z,9.20
2022-08-27T14:52:13.431Z,9.65
2022-08-27T14:54:42.224Z,8.77
2022-08-27T14:57:10.039Z,8.52
2022-08-27T14:59:38.486Z,9.45
2022-08-27T15:02:11.051Z,7.85
2022-08-27T15:04:38.457Z,8.80
2022-08-27T15:07:06.511Z,9.18
2022-08-27T15:09:33.598Z,8.50
2022-08-27T15:12:00.684Z,9.02
2022-08-27T15:14:32.208Z,9.07
2022-08-27T15:17:00.505Z,8.20
2022-08-27T15:19:29.757Z,8.55
2022-08-27T15:22:16.812Z,8.90
2022-08-27T15:24:50.527Z,7.85
2022-08-27T15:27:17.659Z,7.63
2022-08-27T15:29:45.033Z,8.32
2022-08-27T15:32:34.461Z,7.55
2022-08-27T15:35:07.965Z,7.50
2022-08-27T15:37:35.799Z,8.23
2022-08-27T15:40:04.298Z,8.57
2022-08-27T15:42:31.399Z,7.55
2022-08-27T15:44:58.761Z,7.85
2022-08-27T15:47:26.353Z,7.85
2022-08-27T15:49:53.470Z,7.00
2022-08-27T15:52:22.255Z,7.57
2022-08-27T15:54:50.192Z,7.60
2022-08-27T15:57:19.615Z,7.60
2022-08-27T15:59:47.112Z,6.65
2022-08-27T16:02:22.049Z,6.88
2022-08-27T16:04:49.942Z,7.75
2022-08-27T16:07:20.152Z,7.03
2022-08-27T16:09:49.433Z,6.75
2022-08-27T16:12:26.900Z,6.50
2022-08-27T16:14:56.057Z,6.75
2022-08-27T16:17:23.833Z,6.05
2022-08-27T16:19:50.877Z,6.30
2022-08-27T16:22:17.909Z,7.05
2022-08-27T16:24:45.251Z,6.72
2022-08-27T16:27:12.351Z,6.57
2022-08-27T16:29:39.514Z,7.18
2022-08-27T16:32:11.392Z,6.20
2022-08-27T16:34:39.392Z,6.60
2022-08-27T16:37:06.417Z,7.25
2022-08-27T16:39:36.403Z,6.47
2022-08-27T16:42:10.150Z,6.35
2022-08-27T16:44:38.640Z,6.03
2022-08-27T16:47:08.764Z,6.68
2022-08-27T16:49:54.717Z,6.40
2022-08-27T16:52:23.573Z,6.38
2022-08-27T16:54:51.978Z,6.93
2022-08-27T16:57:19.430Z,6.53
2022-08-27T16:59:46.520Z,6.38
2022-08-27T17:02:30.103Z,6.03
2022-08-27T17:05:17.723Z,6.22
2022-08-27T17:07:48.796Z,7.28
2022-08-27T17:10:18.469Z,6.47
2022-08-27T17:12:47.167Z,6.95
2022-08-27T17:15:16.820Z,6.50
2022-08-27T17:17:44.539Z,6.53
2022-08-27T17:20:12.115Z,6.70
2022-08-27T17:22:39.466Z,6.55
2022-08-27T17:25:08.260Z,6.40
2022-08-27T17:27:35.498Z,6.78
2022-08-27T17:30:02.689Z,7.38
2022-08-27T17:32:34.835Z,6.50
2022-08-27T17:35:05.887Z,7.47
2022-08-27T17:37:34.038Z,6.10
2022-08-27T17:40:01.554Z,6.10
2022-08-27T17:42:29.631Z,6.28
2022-08-27T17:44:57.439Z,6.65
2022-08-27T17:47:25.090Z,7.70
2022-08-27T17:49:52.993Z,6.70
2022-08-27T17:52:20.824Z,6.25
2022-08-27T17:54:52.581Z,6.80
2022-08-27T17:57:41.338Z,7.07
2022-08-27T18:00:12.661Z,6.82
2022-08-27T18:02:47.508Z,6.50
2022-08-27T18:05:18.332Z,6.80
2022-08-27T18:07:46.615Z,7.03
2022-08-27T18:10:23.773Z,5.82
2022-08-27T18:12:55.569Z,5.90
2022-08-27T18:15:29.572Z,6.00
2022-08-27T18:17:57.980Z,6.43
2022-08-27T18:20:28.821Z,5.38
2022-08-27T18:22:56.667Z,6.28
2022-08-27T18:25:26.649Z,4.85
2022-08-27T18:27:58.609Z,6.07
2022-08-27T18:30:26.447Z,5.35
2022-08-27T18:32:54.081Z,5.13
2022-08-27T18:35:29.020Z,5.57
2022-08-27T18:37:56.525Z,5.15
2022-08-27T18:40:28.156Z,4.70
2022-08-27T18:42:56.346Z,5.07
2022-08-27T18:45:28.566Z,5.10
2022-08-27T18:47:59.215Z,4.82
2022-08-27T18:50:27.048Z,5.70
2022-08-27T18:52:56.727Z,5.03
2022-08-27T18:55:28.285Z,5.00
2022-08-27T18:57:55.560Z,4.65
2022-08-27T19:00:22.880Z,4.50
2022-08-27T19:02:52.681Z,4.55
2022-08-27T19:05:26.693Z,4.18
2022-08-27T19:07:54.997Z,4.85
2022-08-27T19:10:22.152Z,4.57
2022-08-27T19:12:49.317Z,4.93
2022-08-27T19:15:16.888Z,4.60
2022-08-27T19:17:50.838Z,5.18
2022-08-27T19:20:18.755Z,4.95
2022-08-27T19:22:47.245Z,5.15
2022-08-27T19:25:15.986Z,4.95
2022-08-27T19:27:45.179Z,4.97
2022-08-27T19:30:14.440Z,5.43
2022-08-27T19:32:41.683Z,4.97
2022-08-27T19:35:09.997Z,5.07
2022-08-27T19:37:43.573Z,5.68
2022-08-27T19:40:13.322Z,5.30
2022-08-27T19:42:41.555Z,5.25
2022-08-27T19:45:09.072Z,4.88
2022-08-27T19:47:37.592Z,5.68
2022-08-27T19:50:05.398Z,5.00
2022-08-27T19:52:32.410Z,4.93
2022-08-27T19:55:14.959Z,5.10
2022-08-27T19:57:43.440Z,5.88
2022-08-27T20:00:14.290Z,5.22
2022-08-27T20:02:41.255Z,5.25
2022-08-27T20:05:24.125Z,5.65
2022-08-27T20:07:52.840Z,5.90
2022-08-27T20:10:25.872Z,5.30
2022-08-27T20:12:59.635Z,6.03
2022-08-27T20:15:27.176Z,5.47
2022-08-27T20:17:54.655Z,6.47
2022-08-27T20:20:24.725Z,5.32
2022-08-27T20:22:52.480Z,5.72
2022-08-27T20:25:19.813Z,5.63
2022-08-27T20:27:47.713Z,5.53
2022-08-27T20:30:17.555Z,5.20
2022-08-27T20:32:46.774Z,6.20
2022-08-27T20:35:15.280Z,5.15
2022-08-27T20:37:42.797Z,5.47
2022-08-27T20:40:20.038Z,5.88
2022-08-27T20:42:47.189Z,5.32
2022-08-27T20:45:15.930Z,5.65
2022-08-27T20:47:46.007Z,5.30
2022-08-27T20:50:15.123Z,5.30
2022-08-27T20:52:44.758Z,5.35
2022-08-27T20:55:14.247Z,6.22
2022-08-27T20:58:05.819Z,5.70
2022-08-27T21:00:35.605Z,5.07
2022-08-27T21:03:02.831Z,6.22
2022-08-27T21:05:34.508Z,5.20
2022-08-27T21:08:03.694Z,5.25
2022-08-27T21:10:30.835Z,5.85
2022-08-27T21:12:58.307Z,4.95
2022-08-27T21:15:25.647Z,5.32
2022-08-27T21:17:52.776Z,5.85
2022-08-27T21:20:19.866Z,5.28
2022-08-27T21:22:46.875Z,5.45
2022-08-27T21:25:14.659Z,5.43
2022-08-27T21:27:44.648Z,5.82
2022-08-27T21:30:12.806Z,5.03
2022-08-27T21:32:39.799Z,5.32
2022-08-27T21:35:07.222Z,5.78
2022-08-27T21:37:35.472Z,5.50
2022-08-27T21:40:05.113Z,5.13
2022-08-27T21:42:32.280Z,6.32
2022-08-27T21:44:59.261Z,5.68
2022-08-27T21:47:26.747Z,5.15
2022-08-27T21:49:53.765Z,5.75
2022-08-27T21:52:20.793Z,5.03
2022-08-27T21:54:47.777Z,4.97
2022-08-27T21:57:15.808Z,5.10
2022-08-27T21:59:48.170Z,5.55
2022-08-27T22:02:38.892Z,5.43
2022-08-27T22:05:05.142Z,5.68
2022-08-27T22:07:32.153Z,4.47
2022-08-27T22:09:59.229Z,4.88
2022-08-27T22:12:26.418Z,4.57
2022-08-27T22:14:53.526Z,4.95
2022-08-27T22:17:20.518Z,5.15
2022-08-27T22:19:47.504Z,5.53
2022-08-27T22:22:14.552Z,4.70
2022-08-27T22:24:43.181Z,4.82
2022-08-27T22:27:10.604Z,4.95
2022-08-27T22:29:37.665Z,5.45
2022-08-27T22:32:07.593Z,4.72
2022-08-27T22:34:36.169Z,5.65
2022-08-27T22:37:04.321Z,4.35
2022-08-27T22:39:31.512Z,5.63
2022-08-27T22:41:58.745Z,5.38
2022-08-27T22:44:29.365Z,5.15
2022-08-27T22:46:57.172Z,5.05
2022-08-27T22:49:24.352Z,5.03
2022-08-27T22:51:51.401Z,5.47
2022-08-27T22:54:18.994Z,5.32
2022-08-27T22:56:46.103Z,5.82
2022-08-27T22:59:13.386Z,5.15
2022-08-27T23:01:41.195Z,6.38
2022-08-27T23:04:08.642Z,5.90
2022-08-27T23:06:35.768Z,5.75
2022-08-27T23:09:02.918Z,5.07
2022-08-27T23:11:31.853Z,4.78
2022-08-27T23:14:02.178Z,5.90
2022-08-27T23:16:31.844Z,6.05
2022-08-27T23:18:59.003Z,5.00
2022-08-27T23:21:26.363Z,5.88
2022-08-27T23:23:53.382Z,5.35
2022-08-27T23:26:39.378Z,5.70
2022-08-27T23:29:07.358Z,6.10
2022-08-27T23:31:34.689Z,5.45
2022-08-27T23:34:01.766Z,5.45
2022-08-27T23:36:29.378Z,5.45
2022-08-27T23:38:58.316Z,5.53
2022-08-27T23:41:26.905Z,6.57
2022-08-27T23:43:54.373Z,6.00
2022-08-27T23:46:21.620Z,5.18
2022-08-27T23:48:48.713Z,5.85
2022-08-27T23:51:15.806Z,5.38
2022-08-27T23:53:42.856Z,6.47
2022-08-27T23:56:10.781Z,6.13
2022-08-27T23:58:37.828Z,6.68
